YPDN Airport Information

Runway Information
Runway 11 Length 11004 ft width 197 ft
Elevation 96 ft Threshold 0 ft Heading 109
Runway 29 Length 11004 ft Width 197 ft
Elevation 81 ft Threshold 0 ft Heading 289
Runway 18 Length 5000 ft width 98 ft
Elevation 96 ft Threshold 0 ft Heading 180
Runway 36 Length 5000 ft Width 98 ft
Elevation 91 ft Threshold 0 ft Heading 360
Airport Frequencies
Type A/D Name APP Frequency 125.2 MHZ
Type ARTC Name BRISBANE C Frequency 118.15 MHZ
Type ATIS Name ATIS Frequency 112.6 MHZ
Type CLD Name CLNC DEL Frequency 126.8 MHZ
Type DEP Name DEP Frequency 123 MHZ
Type GND Name GND Frequency 121.8 MHZ
Type MISC Name RAAF AIR O Frequency 897.4 MHZ
Type TWR Name TWR Frequency 133.1 MHZ
Airport Navaids
Type NDB Name Bagot Frequency 308 KHZ
Type TACAN Name Darwin Frequency 113700 KHZ
Type VOR-DME Name Darwin Frequency 112600 KHZ
Type NDB Name Darwin Frequency 344 KHZ
Type NDB Name Howard Springs Frequency 257 KHZ
Airport Weather Information & NOTAM
ADDS - METARS form results

(2044 UTC 28 January 2020)
Data provider http://aviationweather.gov/metar/data/
 
METAR text: YPDN 282030Z 27011KT 9999 SCT019 29/25 Q1005 TEMPO 2130/2330 VRB20G35KT 1000 TSRA BKN010 SCT020CB
Conditions at: YPDN (DARWIN (CIV/MIL), AU) observed 2030 UTC 28 January 2020
Temperature: 29.0°C (84°F)
Dewpoint: 25.0°C (77°F) [RH = 79%]
Pressure (altimeter): 29.68 inches Hg (1005.0 mb)
Winds: from the W (270 degrees) at 13 MPH (11 knots; 5.7 m/s)
Visibility: 6 or more miles (10+ km)
Ceiling: at least 12,000 feet AGL
Clouds: scattered clouds at 1900 feet AGL
Weather: no significant weather observed at this time

METAR text: YPDN 282000Z 28014KT 9999 SCT019 30/26 Q1004 NOSIG
Conditions at: YPDN (DARWIN (CIV/MIL), AU) observed 2000 UTC 28 January 2020
Temperature: 30.0°C (86°F)
Dewpoint: 26.0°C (79°F) [RH = 79%]
Pressure (altimeter): 29.65 inches Hg (1004.0 mb)
Winds: from the W (280 degrees) at 16 MPH (14 knots; 7.2 m/s)
Visibility: 6 or more miles (10+ km)
Ceiling: at least 12,000 feet AGL
Clouds: scattered clouds at 1900 feet AGL
Weather: no significant weather observed at this time

Forecast for: AMD
Text: TAF AMD YPDN 281928Z 2819/3000 29013KT 9999 SCT020
Forecast period: 1900 UTC 28 January 2020 to 0000 UTC 30 January 2020
Forecast type: FROM: standard forecast or significant change
Winds: from the WNW (290 degrees) at 15 MPH (13 knots; 6.7 m/s)
Visibility: 6 or more miles 10+ km)
Ceiling: at least 12,000 feet AGL
Clouds: scattered clouds at 2000 feet AGL
Weather: no significant weather forecast for this period
Text: PROB30
Forecast period: 2100 UTC 28 January 2020 to 0200 UTC 29 January 2020
Forecast type: TEMPORARY: The following changes expected for less than half the time period
Winds: variable direction winds at 29 MPH (25 knots; 12.9 m/s)
gusting to 46 MPH (40 knots; 20.6 m/s)
Visibility: 0.62 miles (1.00 km)
Ceiling: 1000 feet AGL
Clouds: broken clouds at 1000 feet AGL
scattered clouds at 3000 feet AGL
Weather: TSRA  (rain associated with thunderstorm(s))